createdAt,value
2023-01-29T00:00:10.620Z,-3.08
2023-01-29T00:02:37.503Z,-3.04
2023-01-29T00:05:24.763Z,-3.04
2023-01-29T00:07:52.762Z,-2.99
2023-01-29T00:10:19.350Z,-2.98
2023-01-29T00:12:45.924Z,-3.04
2023-01-29T00:15:14.377Z,-3.05
2023-01-29T00:17:40.963Z,-3.02
2023-01-29T00:20:07.894Z,-3.00
2023-01-29T00:22:34.518Z,-2.97
2023-01-29T00:25:01.167Z,-2.96
2023-01-29T00:27:27.781Z,-3.04
2023-01-29T00:30:09.413Z,-2.92
2023-01-29T00:32:36.339Z,-2.93
2023-01-29T00:35:03.506Z,-2.90
2023-01-29T00:37:34.425Z,-2.89
2023-01-29T00:40:01.010Z,-2.89
2023-01-29T00:42:47.728Z,-2.84
2023-01-29T00:45:14.214Z,-2.82
2023-01-29T00:47:41.300Z,-2.87
2023-01-29T00:50:11.700Z,-2.87
2023-01-29T00:52:42.320Z,-2.86
2023-01-29T00:55:10.633Z,-2.86
2023-01-29T00:57:38.144Z,-2.83
2023-01-29T01:00:08.347Z,-2.81
2023-01-29T01:02:55.670Z,-2.80
2023-01-29T01:05:22.640Z,-2.78
2023-01-29T01:07:59.292Z,-2.82
2023-01-29T01:10:31.863Z,-2.97
2023-01-29T01:13:01.843Z,-2.81
2023-01-29T01:15:31.908Z,-2.81
2023-01-29T01:18:01.597Z,-2.78
2023-01-29T01:20:31.789Z,-2.76
2023-01-29T01:22:58.522Z,-2.76
2023-01-29T01:25:26.771Z,-2.74
2023-01-29T01:27:54.696Z,-2.80
2023-01-29T01:30:21.845Z,-2.72
2023-01-29T01:32:48.574Z,-2.71
2023-01-29T01:35:15.173Z,-2.80
2023-01-29T01:37:43.835Z,-2.63
2023-01-29T01:40:18.420Z,-2.63
2023-01-29T01:42:49.265Z,-2.62
2023-01-29T01:45:37.025Z,-2.57
2023-01-29T01:48:03.637Z,-2.65
2023-01-29T01:50:33.738Z,-2.56
2023-01-29T01:53:08.165Z,-2.56
2023-01-29T01:55:40.608Z,-2.56
2023-01-29T01:58:32.801Z,-2.53
2023-01-29T02:00:59.794Z,-2.50
2023-01-29T02:03:46.949Z,-2.49
2023-01-29T02:06:32.269Z,-2.49
2023-01-29T02:09:23.965Z,-2.49
2023-01-29T02:11:51.456Z,-2.52
2023-01-29T02:14:18.072Z,-2.45
2023-01-29T02:16:46.579Z,-2.43
2023-01-29T02:19:36.578Z,-2.46
2023-01-29T02:22:39.843Z,-2.44
2023-01-29T02:25:49.288Z,-2.45
2023-01-29T02:28:21.797Z,-2.41
2023-01-29T02:30:59.842Z,-2.41
2023-01-29T02:33:45.096Z,-2.39
2023-01-29T02:36:26.566Z,-2.37
2023-01-29T02:38:53.978Z,-2.34
2023-01-29T02:41:36.575Z,-2.33
2023-01-29T02:44:38.983Z,-2.40
2023-01-29T02:47:17.140Z,-2.44
2023-01-29T02:50:05.495Z,-2.43
2023-01-29T02:52:56.949Z,-2.43
2023-01-29T02:55:32.209Z,-2.44
2023-01-29T02:58:06.167Z,-2.43
2023-01-29T03:00:38.265Z,-2.38
2023-01-29T03:03:11.290Z,-2.38
2023-01-29T03:05:51.890Z,-2.44
2023-01-29T03:08:37.192Z,-2.42
2023-01-29T03:11:06.696Z,-2.41
2023-01-29T03:13:54.887Z,-2.37
2023-01-29T03:16:40.001Z,-2.40
2023-01-29T03:19:11.487Z,-2.40
2023-01-29T03:21:51.380Z,-2.39
2023-01-29T03:24:41.266Z,-2.40
2023-01-29T03:27:30.466Z,-2.41
2023-01-29T03:30:17.901Z,-2.46
2023-01-29T03:32:46.665Z,-2.41
2023-01-29T03:35:21.078Z,-2.43
2023-01-29T03:37:50.368Z,-2.47
2023-01-29T03:40:18.712Z,-2.45
2023-01-29T03:42:57.842Z,-2.46
2023-01-29T03:45:32.968Z,-2.52
2023-01-29T03:48:15.842Z,-2.50
2023-01-29T03:50:51.699Z,-2.45
2023-01-29T03:53:47.970Z,-2.45
2023-01-29T03:56:40.374Z,-2.42
2023-01-29T03:59:22.947Z,-2.47
2023-01-29T04:01:57.817Z,-2.50
2023-01-29T04:04:29.190Z,-2.53
2023-01-29T04:07:00.924Z,-2.53
2023-01-29T04:10:04.309Z,-2.59
2023-01-29T04:12:37.790Z,-2.52
2023-01-29T04:15:09.899Z,-2.49
2023-01-29T04:17:41.366Z,-2.52
2023-01-29T04:20:09.545Z,-2.53
2023-01-29T04:22:41.562Z,-2.54
2023-01-29T04:25:17.720Z,-2.58
2023-01-29T04:28:11.044Z,-2.61
2023-01-29T04:31:02.742Z,-2.65
2023-01-29T04:33:43.638Z,-2.63
2023-01-29T04:36:25.363Z,-2.65
2023-01-29T04:39:11.962Z,-2.69
2023-01-29T04:41:38.475Z,-2.71
2023-01-29T04:44:09.822Z,-2.76
2023-01-29T04:46:47.045Z,-2.81
2023-01-29T04:50:08.154Z,-2.83
2023-01-29T04:53:10.828Z,-2.85
2023-01-29T04:55:54.694Z,-2.89
2023-01-29T04:58:37.251Z,-2.88
2023-01-29T05:01:06.747Z,-2.87
2023-01-29T05:03:36.264Z,-2.84
2023-01-29T05:06:06.067Z,-2.83
2023-01-29T05:08:34.031Z,-2.85
2023-01-29T05:11:00.804Z,-2.87
2023-01-29T05:13:30.059Z,-2.91
2023-01-29T05:16:27.946Z,-2.93
2023-01-29T05:18:55.081Z,-2.94
2023-01-29T05:21:23.504Z,-3.01
2023-01-29T05:24:25.197Z,-2.99
2023-01-29T05:27:13.230Z,-2.99
2023-01-29T05:29:46.117Z,-2.94
2023-01-29T05:32:13.213Z,-2.94
2023-01-29T05:34:39.798Z,-2.92
2023-01-29T05:37:08.871Z,-2.91
2023-01-29T05:39:36.500Z,-2.91
2023-01-29T05:42:03.384Z,-2.93
2023-01-29T05:44:29.990Z,-3.00
2023-01-29T05:46:56.707Z,-3.03
2023-01-29T05:49:23.328Z,-3.02
2023-01-29T05:51:50.016Z,-3.15
2023-01-29T05:54:16.630Z,-3.05
2023-01-29T05:56:43.405Z,-3.04
2023-01-29T05:59:10.766Z,-2.99
2023-01-29T06:01:37.691Z,-3.06
2023-01-29T06:04:04.433Z,-3.16
2023-01-29T06:06:31.108Z,-3.08
2023-01-29T06:08:57.647Z,-3.06
2023-01-29T06:11:24.721Z,-3.09
2023-01-29T06:13:51.354Z,-3.09
2023-01-29T06:16:17.993Z,-3.03
2023-01-29T06:18:44.675Z,-3.04
2023-01-29T06:21:14.323Z,-3.03
2023-01-29T06:23:41.695Z,-3.04
2023-01-29T06:26:14.121Z,-3.05
2023-01-29T06:28:41.066Z,-3.04
2023-01-29T06:31:24.318Z,-3.04
2023-01-29T06:33:55.258Z,-3.02
2023-01-29T06:36:23.100Z,-3.08
2023-01-29T06:38:54.055Z,-3.09
2023-01-29T06:41:26.308Z,-3.12
2023-01-29T06:44:01.079Z,-3.05
2023-01-29T06:46:27.822Z,-3.02
2023-01-29T06:49:03.643Z,-3.05
2023-01-29T06:51:34.151Z,-3.02
2023-01-29T06:54:00.754Z,-2.99
2023-01-29T06:56:27.450Z,-2.97
2023-01-29T06:58:54.174Z,-2.98
2023-01-29T07:01:34.743Z,-2.98
2023-01-29T07:04:06.113Z,-2.98
2023-01-29T07:06:33.051Z,-3.02
2023-01-29T07:08:59.831Z,-3.05
2023-01-29T07:11:27.212Z,-3.01
2023-01-29T07:13:53.747Z,-2.99
2023-01-29T07:16:20.421Z,-3.02
2023-01-29T07:18:47.944Z,-3.07
2023-01-29T07:21:14.749Z,-3.04
2023-01-29T07:23:41.354Z,-3.00
2023-01-29T07:26:08.320Z,-2.95
